createdAt,value
2017-12-04T00:00:02.368Z,9.98
2017-12-04T00:02:29.997Z,14.00
2017-12-04T00:04:57.556Z,13.52
2017-12-04T00:07:25.113Z,13.60
2017-12-04T00:09:52.717Z,14.43
2017-12-04T00:12:20.285Z,15.50
2017-12-04T00:14:47.907Z,14.77
2017-12-04T00:17:15.471Z,15.23
2017-12-04T00:19:43.091Z,12.30
2017-12-04T00:22:11.448Z,15.00
2017-12-04T00:24:39.122Z,13.93
2017-12-04T00:27:07.650Z,15.13
2017-12-04T00:29:35.227Z,16.23
2017-12-04T00:32:04.357Z,16.70
2017-12-04T00:34:32.748Z,16.33
2017-12-04T00:37:00.300Z,14.75
2017-12-04T00:39:27.940Z,17.85
2017-12-04T00:41:56.276Z,17.67
2017-12-04T00:44:23.914Z,18.45
2017-12-04T00:46:51.504Z,17.60
2017-12-04T00:49:19.080Z,18.45
2017-12-04T00:51:46.689Z,16.62
2017-12-04T00:54:14.351Z,18.48
2017-12-04T00:56:41.952Z,18.50
2017-12-04T00:59:09.536Z,19.55
2017-12-04T01:01:37.921Z,20.33
2017-12-04T01:04:06.252Z,22.42
2017-12-04T01:06:33.868Z,20.55
2017-12-04T01:09:01.464Z,21.75
2017-12-04T01:11:29.084Z,21.60
2017-12-04T01:13:56.843Z,21.50
2017-12-04T01:16:25.183Z,19.92
2017-12-04T01:18:52.892Z,21.37
2017-12-04T01:21:20.484Z,19.33
2017-12-04T01:23:48.119Z,20.80
2017-12-04T01:26:15.700Z,20.00
2017-12-04T01:28:43.265Z,22.25
2017-12-04T01:31:10.887Z,22.15
2017-12-04T01:33:38.439Z,22.37
2017-12-04T01:36:06.031Z,23.65
2017-12-04T01:38:33.620Z,21.50
2017-12-04T01:41:01.179Z,21.05
2017-12-04T01:43:28.857Z,21.58
2017-12-04T01:45:57.272Z,21.27
2017-12-04T01:48:24.832Z,21.77
2017-12-04T01:50:52.499Z,23.25
2017-12-04T01:53:20.059Z,22.92
2017-12-04T01:55:47.776Z,22.98
2017-12-04T01:58:16.186Z,20.55
2017-12-04T02:00:43.950Z,18.40
2017-12-04T02:03:11.523Z,20.90
2017-12-04T02:05:39.079Z,19.80
2017-12-04T02:08:06.672Z,18.60
2017-12-04T02:10:34.351Z,19.23
2017-12-04T02:13:02.743Z,17.25
2017-12-04T02:15:31.091Z,16.20
2017-12-04T02:17:58.700Z,18.92
2017-12-04T02:20:26.475Z,16.40
2017-12-04T02:22:54.040Z,16.27
2017-12-04T02:25:21.688Z,17.90
2017-12-04T02:27:49.252Z,17.50
2017-12-04T02:30:16.823Z,18.73
2017-12-04T02:32:44.412Z,18.27
2017-12-04T02:35:11.988Z,17.33
2017-12-04T02:37:40.375Z,16.90
2017-12-04T02:40:08.155Z,15.65
2017-12-04T02:42:35.764Z,17.33
2017-12-04T02:45:03.318Z,17.33
2017-12-04T02:47:31.007Z,18.77
2017-12-04T02:49:59.343Z,17.30
2017-12-04T02:52:26.982Z,19.35
2017-12-04T02:54:54.575Z,17.98
2017-12-04T02:57:22.222Z,18.10
2017-12-04T02:59:49.807Z,17.02
2017-12-04T03:02:17.466Z,19.48
2017-12-04T03:04:45.055Z,18.37
2017-12-04T03:07:12.791Z,17.80
2017-12-04T03:09:41.123Z,18.98
2017-12-04T03:12:08.707Z,18.30
2017-12-04T03:14:36.270Z,17.83
2017-12-04T03:17:03.995Z,17.90
2017-12-04T03:19:31.555Z,18.55
2017-12-04T03:21:59.167Z,16.48
2017-12-04T03:24:27.491Z,17.55
2017-12-04T03:26:55.058Z,17.25
2017-12-04T03:29:22.647Z,17.20
2017-12-04T03:31:50.207Z,13.98
2017-12-04T03:34:17.917Z,12.65
2017-12-04T03:36:45.598Z,10.20
2017-12-04T03:39:13.396Z,9.25
2017-12-04T03:41:40.955Z,8.75
2017-12-04T03:44:08.544Z,9.35
2017-12-04T03:46:36.131Z,9.43
2017-12-04T03:49:03.687Z,9.60
2017-12-04T03:51:31.299Z,9.75
2017-12-04T03:53:59.626Z,8.38
2017-12-04T03:56:27.260Z,8.65
2017-12-04T03:58:54.847Z,7.25
2017-12-04T04:01:22.499Z,8.35
2017-12-04T04:03:50.127Z,8.05
2017-12-04T04:06:18.547Z,8.50
2017-12-04T04:08:46.239Z,9.70
2017-12-04T04:11:13.951Z,8.27
2017-12-04T04:13:41.511Z,9.15
2017-12-04T04:16:09.087Z,7.75
2017-12-04T04:18:36.654Z,7.70
2017-12-04T04:21:04.246Z,8.63
2017-12-04T04:23:32.583Z,8.40
2017-12-04T04:26:00.181Z,7.95
2017-12-04T04:28:27.727Z,7.72
2017-12-04T04:30:55.344Z,6.95
2017-12-04T04:33:22.936Z,7.45
2017-12-04T04:35:50.606Z,8.18
2017-12-04T04:38:18.230Z,7.75
2017-12-04T04:40:45.851Z,8.77
2017-12-04T04:43:14.304Z,7.60
2017-12-04T04:45:41.859Z,8.50
2017-12-04T04:48:09.460Z,8.27
2017-12-04T04:50:37.044Z,8.02
2017-12-04T04:53:04.614Z,7.85
2017-12-04T04:55:32.215Z,8.20
2017-12-04T04:58:00.531Z,7.25
2017-12-04T05:00:28.084Z,8.82
2017-12-04T05:02:55.747Z,8.32
2017-12-04T05:05:23.379Z,8.43
2017-12-04T05:07:51.726Z,9.00
2017-12-04T05:10:19.312Z,8.30
2017-12-04T05:12:46.909Z,8.40
2017-12-04T05:15:14.466Z,9.00
2017-12-04T05:17:42.047Z,9.20
2017-12-04T05:20:09.608Z,8.20
2017-12-04T05:22:37.203Z,11.45
2017-12-04T05:25:05.555Z,11.05
2017-12-04T05:27:33.139Z,12.77
2017-12-04T05:30:01.659Z,14.15
2017-12-04T05:32:29.235Z,12.98
2017-12-04T05:34:56.787Z,9.80
2017-12-04T05:37:24.375Z,10.88
2017-12-04T05:39:51.959Z,12.10
2017-12-04T05:42:20.323Z,11.40
2017-12-04T05:44:48.755Z,11.10
2017-12-04T05:47:16.340Z,11.93
2017-12-04T05:49:43.898Z,9.43
2017-12-04T05:52:11.508Z,8.52
2017-12-04T05:54:39.058Z,8.48
2017-12-04T05:57:06.655Z,9.57
2017-12-04T05:59:34.211Z,10.30
2017-12-04T06:02:01.779Z,10.10
2017-12-04T06:04:29.508Z,11.00
2017-12-04T06:06:57.084Z,8.45
2017-12-04T06:09:24.647Z,8.43
2017-12-04T06:11:52.286Z,7.85
2017-12-04T06:14:19.951Z,7.80
2017-12-04T06:16:47.607Z,7.43
2017-12-04T06:19:15.383Z,9.13
2017-12-04T06:21:43.087Z,7.72
2017-12-04T06:24:10.639Z,8.40
2017-12-04T06:26:38.258Z,7.80
2017-12-04T06:29:05.858Z,9.30
2017-12-04T06:31:33.426Z,9.43
2017-12-04T06:34:01.847Z,4.20
2017-12-04T06:36:29.443Z,7.18
2017-12-04T06:38:57.091Z,7.78
2017-12-04T06:41:24.771Z,10.63
2017-12-04T06:43:53.951Z,9.45
2017-12-04T06:46:21.586Z,8.93
2017-12-04T06:48:49.242Z,10.15
2017-12-04T06:51:16.799Z,11.02
2017-12-04T06:53:44.415Z,9.88
2017-12-04T06:56:12.735Z,10.35
2017-12-04T06:58:40.336Z,10.07
2017-12-04T07:01:07.923Z,10.13
2017-12-04T07:03:36.255Z,10.15
2017-12-04T07:06:03.855Z,10.50
2017-12-04T07:08:32.166Z,9.05
2017-12-04T07:10:59.851Z,9.88
2017-12-04T07:13:27.588Z,11.20
2017-12-04T07:15:55.147Z,10.55
2017-12-04T07:18:22.715Z,10.90
2017-12-04T07:20:50.331Z,12.40
2017-12-04T07:23:18.648Z,12.27
2017-12-04T07:25:46.355Z,13.60
2017-12-04T07:28:13.943Z,13.73
2017-12-04T07:30:41.519Z,13.62
2017-12-04T07:33:09.107Z,13.48
2017-12-04T07:35:36.667Z,13.05
2017-12-04T07:38:04.251Z,13.38
2017-12-04T07:40:31.811Z,14.30
2017-12-04T07:42:59.399Z,13.90
2017-12-04T07:45:26.983Z,14.40
2017-12-04T07:47:54.546Z,13.15
2017-12-04T07:50:22.139Z,12.37
2017-12-04T07:52:49.735Z,13.00
2017-12-04T07:55:17.367Z,11.68
2017-12-04T07:57:44.931Z,12.35
2017-12-04T08:00:13.287Z,12.00
2017-12-04T08:02:40.852Z,12.20
2017-12-04T08:05:08.459Z,12.55
2017-12-04T08:07:36.071Z,11.45
2017-12-04T08:10:03.695Z,11.73
2017-12-04T08:12:31.408Z,12.27
2017-12-04T08:14:59.821Z,11.25
2017-12-04T08:17:27.406Z,12.40
2017-12-04T08:19:55.090Z,12.13
2017-12-04T08:22:22.644Z,11.27
2017-12-04T08:24:50.199Z,14.10
2017-12-04T08:27:17.813Z,14.25
2017-12-04T08:29:45.465Z,14.38
2017-12-04T08:32:13.137Z,10.40
2017-12-04T08:34:40.692Z,11.75
2017-12-04T08:37:08.460Z,14.95
2017-12-04T08:39:36.134Z,15.00
2017-12-04T08:42:03.705Z,12.73
2017-12-04T08:44:31.352Z,14.10
2017-12-04T08:46:58.932Z,14.82
2017-12-04T08:49:26.493Z,12.30
2017-12-04T08:51:54.080Z,13.62
2017-12-04T08:54:22.402Z,12.35
2017-12-04T08:56:50.007Z,13.15
2017-12-04T08:59:17.584Z,14.50
2017-12-04T09:01:45.903Z,13.25
2017-12-04T09:04:13.501Z,13.15
2017-12-04T09:06:41.060Z,12.32
2017-12-04T09:09:08.651Z,13.68
2017-12-04T09:11:36.230Z,13.98
2017-12-04T09:14:03.932Z,12.27
2017-12-04T09:16:31.520Z,11.75
2017-12-04T09:18:59.200Z,13.18
2017-12-04T09:21:26.911Z,13.65
2017-12-04T09:23:54.622Z,13.25
2017-12-04T09:26:22.218Z,12.40
2017-12-04T09:28:49.822Z,12.55
2017-12-04T09:31:17.419Z,13.52
2017-12-04T09:33:45.061Z,13.95
2017-12-04T09:36:12.722Z,14.07
2017-12-04T09:38:40.308Z,14.35
2017-12-04T09:41:07.879Z,14.73
2017-12-04T09:43:35.501Z,13.52
2017-12-04T09:46:03.094Z,15.23
2017-12-04T09:48:30.671Z,13.65
2017-12-04T09:50:58.377Z,15.60
2017-12-04T09:53:25.940Z,16.27
2017-12-04T09:55:53.523Z,15.43
2017-12-04T09:58:21.119Z,15.20
2017-12-04T10:00:49.468Z,15.57
2017-12-04T10:03:17.091Z,14.32
2017-12-04T10:05:44.647Z,14.38
2017-12-04T10:08:12.252Z,15.55
2017-12-04T10:10:39.807Z,14.98
2017-12-04T10:13:07.426Z,14.02
2017-12-04T10:15:35.019Z,13.32
2017-12-04T10:18:02.575Z,15.98
2017-12-04T10:20:30.166Z,5.22
2017-12-04T10:22:58.506Z,5.70
2017-12-04T10:25:26.236Z,6.43
2017-12-04T10:27:53.795Z,3.67
2017-12-04T10:30:21.362Z,4.40
2017-12-04T10:32:48.996Z,4.18
2017-12-04T10:35:17.375Z,4.03
2017-12-04T10:37:45.041Z,5.47
2017-12-04T10:40:12.715Z,4.30
2017-12-04T10:42:40.263Z,4.87
2017-12-04T10:45:07.848Z,6.65
2017-12-04T10:47:35.411Z,5.12
2017-12-04T10:50:03.057Z,6.82
2017-12-04T10:52:30.608Z,6.12
2017-12-04T10:54:58.214Z,8.10
2017-12-04T10:57:25.815Z,7.97
2017-12-04T10:59:53.402Z,8.75
2017-12-04T11:02:21.011Z,8.95
2017-12-04T11:04:49.424Z,10.63
2017-12-04T11:07:16.987Z,11.65
2017-12-04T11:09:44.595Z,12.80
2017-12-04T11:12:12.164Z,11.43
2017-12-04T11:14:40.532Z,10.95
2017-12-04T11:17:08.104Z,11.25
2017-12-04T11:19:36.615Z,10.80
2017-12-04T11:22:04.186Z,10.77
2017-12-04T11:24:31.835Z,10.73
2017-12-04T11:26:59.438Z,9.90
2017-12-04T11:29:26.999Z,9.90
2017-12-04T11:31:54.583Z,8.93
2017-12-04T11:34:22.920Z,9.10
2017-12-04T11:36:50.490Z,7.78
2017-12-04T11:39:18.086Z,7.87
2017-12-04T11:41:45.661Z,5.22
2017-12-04T11:44:13.239Z,5.15
2017-12-04T11:46:40.836Z,6.20
2017-12-04T11:49:08.391Z,4.78
2017-12-04T11:51:36.743Z,5.45
2017-12-04T11:54:04.375Z,6.87
2017-12-04T11:56:31.972Z,7.60
2017-12-04T11:58:59.528Z,6.32
2017-12-04T12:01:27.150Z,6.15
2017-12-04T12:03:54.915Z,6.72
2017-12-04T12:06:22.478Z,8.05
2017-12-04T12:08:50.039Z,7.18
2017-12-04T12:11:17.636Z,7.47
2017-12-04T12:13:45.253Z,6.80
2017-12-04T12:16:12.808Z,6.22
2017-12-04T12:18:40.395Z,7.03
2017-12-04T12:21:07.992Z,6.70
2017-12-04T12:23:36.311Z,6.70
2017-12-04T12:26:03.964Z,5.90
2017-12-04T12:28:31.519Z,6.18
2017-12-04T12:30:59.083Z,6.10
2017-12-04T12:33:26.676Z,6.07
2017-12-04T12:35:54.251Z,7.28
2017-12-04T12:38:21.820Z,5.80
2017-12-04T12:40:50.175Z,6.78
2017-12-04T12:43:17.739Z,6.20
2017-12-04T12:45:45.349Z,7.20
2017-12-04T12:48:13.119Z,7.72
2017-12-04T12:50:40.692Z,7.53
2017-12-04T12:53:08.278Z,6.80
2017-12-04T12:55:36.011Z,7.60
2017-12-04T12:58:03.614Z,7.82
2017-12-04T13:00:31.960Z,8.10
2017-12-04T13:02:59.552Z,6.32
2017-12-04T13:05:27.884Z,6.37
2017-12-04T13:07:55.466Z,6.28
2017-12-04T13:10:23.033Z,5.82
2017-12-04T13:12:50.670Z,6.00
2017-12-04T13:15:18.235Z,6.55
2017-12-04T13:17:45.816Z,7.05
2017-12-04T13:20:13.383Z,7.07
2017-12-04T13:22:41.744Z,7.85
2017-12-04T13:25:09.331Z,8.32
2017-12-04T13:27:36.892Z,6.00
2017-12-04T13:30:04.500Z,6.00
2017-12-04T13:35:45.839Z,5.72
2017-12-04T13:38:14.168Z,5.75
2017-12-04T13:40:41.754Z,7.65
2017-12-04T13:43:09.315Z,7.80
2017-12-04T13:45:36.928Z,7.57
2017-12-04T13:48:04.499Z,8.10
2017-12-04T13:50:32.054Z,7.25
2017-12-04T13:52:59.660Z,9.65
2017-12-04T13:55:27.999Z,8.93
2017-12-04T13:57:55.637Z,8.25
2017-12-04T14:00:23.251Z,8.57
2017-12-04T14:02:51.732Z,9.13
2017-12-04T14:05:20.098Z,7.97
2017-12-04T14:07:47.667Z,9.43
2017-12-04T14:10:15.271Z,8.35
2017-12-04T14:12:42.844Z,8.55
2017-12-04T14:15:10.443Z,8.15
2017-12-04T14:17:37.996Z,8.65
2017-12-04T14:20:05.591Z,8.07
2017-12-04T14:22:33.377Z,7.93
2017-12-04T14:25:00.956Z,9.63
2017-12-04T14:27:28.563Z,8.90
2017-12-04T14:29:56.119Z,6.50
2017-12-04T14:32:23.831Z,5.32
2017-12-04T14:34:51.429Z,5.93
2017-12-04T14:37:19.759Z,6.20
2017-12-04T14:39:47.368Z,5.32
2017-12-04T14:42:15.712Z,5.00
2017-12-04T14:44:43.337Z,4.45
2017-12-04T14:47:10.903Z,5.47
2017-12-04T14:49:38.491Z,3.80
2017-12-04T14:52:06.088Z,4.60
2017-12-04T14:54:33.647Z,5.05
2017-12-04T14:57:01.251Z,4.40
2017-12-04T14:59:28.828Z,4.40
2017-12-04T15:01:56.398Z,5.03
2017-12-04T15:04:24.003Z,4.28
2017-12-04T15:06:51.668Z,4.60
2017-12-04T15:09:19.287Z,3.30
2017-12-04T15:11:47.819Z,5.07
2017-12-04T15:14:15.383Z,5.18
2017-12-04T15:16:43.013Z,3.87
2017-12-04T15:19:10.791Z,4.18
2017-12-04T15:21:38.555Z,4.20
2017-12-04T15:24:06.143Z,3.70
2017-12-04T15:26:33.712Z,4.65
2017-12-04T15:29:01.365Z,4.40
2017-12-04T15:31:28.952Z,4.37
2017-12-04T15:33:57.328Z,4.30
2017-12-04T15:36:25.656Z,3.75
2017-12-04T15:38:53.405Z,3.47
2017-12-04T15:41:20.988Z,3.12
2017-12-04T15:43:48.611Z,4.03
2017-12-04T15:46:16.207Z,2.53
2017-12-04T15:48:43.791Z,3.55
2017-12-04T15:51:11.392Z,3.92
2017-12-04T15:53:38.991Z,3.37
2017-12-04T15:56:06.547Z,3.40
2017-12-04T15:58:34.179Z,4.07
2017-12-04T16:01:01.863Z,3.92
2017-12-04T16:03:29.571Z,3.80
2017-12-04T16:05:58.073Z,4.35
2017-12-04T16:08:25.634Z,4.10
2017-12-04T16:10:53.266Z,3.10
2017-12-04T16:13:20.866Z,3.92
2017-12-04T16:15:48.437Z,3.87
2017-12-04T16:18:16.028Z,8.05
2017-12-04T16:20:43.591Z,4.43
2017-12-04T16:23:11.972Z,5.00
2017-12-04T16:25:40.307Z,3.55
2017-12-04T16:28:07.872Z,6.12
2017-12-04T16:30:35.477Z,3.47
2017-12-04T16:33:03.800Z,3.17
2017-12-04T16:35:31.362Z,3.53
2017-12-04T16:37:58.963Z,3.40
2017-12-04T16:40:27.318Z,4.20
2017-12-04T16:42:54.913Z,3.55
2017-12-04T16:45:23.304Z,3.70
2017-12-04T16:47:50.907Z,3.65
2017-12-04T16:50:18.467Z,4.07
2017-12-04T16:52:46.066Z,4.47
2017-12-04T16:55:14.644Z,4.03
2017-12-04T16:57:42.987Z,3.90
2017-12-04T17:00:10.628Z,4.90
2017-12-04T17:02:38.195Z,3.80
2017-12-04T17:05:05.891Z,4.10
2017-12-04T17:07:34.229Z,3.10
2017-12-04T17:10:01.821Z,3.85
2017-12-04T17:12:29.526Z,3.53
2017-12-04T17:14:57.195Z,4.60
2017-12-04T17:17:24.803Z,4.15
2017-12-04T17:19:53.187Z,3.65
2017-12-04T17:22:21.564Z,4.70
2017-12-04T17:24:49.972Z,4.28
2017-12-04T17:27:18.367Z,4.40
2017-12-04T17:29:46.007Z,5.32
2017-12-04T17:32:13.737Z,5.07
2017-12-04T17:34:42.060Z,4.95
2017-12-04T17:37:09.668Z,5.78
2017-12-04T17:39:38.035Z,6.05
2017-12-04T17:42:05.670Z,5.22
2017-12-04T17:44:33.248Z,5.53
2017-12-04T17:47:01.026Z,6.03
2017-12-04T17:49:28.623Z,6.00
2017-12-04T17:51:56.202Z,5.85
2017-12-04T17:54:23.853Z,6.00
2017-12-04T17:56:51.432Z,5.15
2017-12-04T17:59:19.015Z,6.37
2017-12-04T18:01:46.624Z,4.62
2017-12-04T18:04:14.252Z,5.55
2017-12-04T18:06:42.660Z,5.30
2017-12-04T18:09:10.231Z,5.28
2017-12-04T18:11:37.940Z,5.40
2017-12-04T18:14:05.544Z,6.85
2017-12-04T18:16:33.125Z,5.07
2017-12-04T18:19:00.740Z,5.78
2017-12-04T18:21:29.077Z,5.95
2017-12-04T18:23:56.763Z,4.43
2017-12-04T18:26:24.439Z,5.82
2017-12-04T18:28:52.042Z,6.15
2017-12-04T18:31:19.644Z,6.55
2017-12-04T18:33:48.023Z,6.62
2017-12-04T18:36:16.491Z,5.90
2017-12-04T18:38:44.843Z,7.87
2017-12-04T18:41:12.632Z,7.07
2017-12-04T18:43:40.992Z,8.57
2017-12-04T18:46:08.613Z,10.00
2017-12-04T18:48:36.181Z,9.27
2017-12-04T18:51:03.871Z,6.55
2017-12-04T18:53:31.443Z,7.03
2017-12-04T18:55:59.063Z,5.95
2017-12-04T18:58:26.737Z,7.80
2017-12-04T19:00:54.395Z,6.87
2017-12-04T19:03:21.987Z,8.30
2017-12-04T19:05:50.516Z,7.62
2017-12-04T19:08:18.171Z,8.45
2017-12-04T19:10:45.740Z,7.45
2017-12-04T19:13:13.362Z,9.38
2017-12-04T19:15:41.728Z,9.48
2017-12-04T19:18:10.090Z,8.95
2017-12-04T19:20:37.661Z,7.45
2017-12-04T19:23:05.265Z,9.20
2017-12-04T19:25:32.850Z,9.80
2017-12-04T19:28:00.471Z,8.57
2017-12-04T19:30:28.042Z,7.90
2017-12-04T19:32:55.603Z,8.45
2017-12-04T19:35:23.235Z,8.00
2017-12-04T19:37:51.609Z,8.40
2017-12-04T19:40:20.016Z,8.55
2017-12-04T19:42:47.680Z,8.55
2017-12-04T19:45:15.264Z,7.87
2017-12-04T19:47:42.869Z,5.43
2017-12-04T19:50:11.275Z,6.12
2017-12-04T19:52:38.963Z,6.68
2017-12-04T19:55:06.515Z,7.95
2017-12-04T19:57:34.136Z,7.20
2017-12-04T20:00:01.745Z,6.70
2017-12-04T20:02:29.316Z,7.80
2017-12-04T20:04:56.929Z,5.43
2017-12-04T20:07:24.551Z,6.35
2017-12-04T20:09:52.944Z,6.25
2017-12-04T20:12:20.532Z,6.55
2017-12-04T20:14:48.168Z,6.85
2017-12-04T20:17:15.773Z,6.62
2017-12-04T20:19:43.349Z,5.68
2017-12-04T20:22:10.960Z,6.70
2017-12-04T20:24:38.534Z,7.50
2017-12-04T20:27:06.148Z,7.68
2017-12-04T20:29:34.500Z,4.00
2017-12-04T20:32:02.096Z,7.75
2017-12-04T20:34:29.718Z,6.95
2017-12-04T20:36:58.228Z,6.80
2017-12-04T20:39:26.599Z,7.60
2017-12-04T20:41:54.940Z,7.50
2017-12-04T20:44:22.747Z,5.00
2017-12-04T20:46:51.096Z,5.82
2017-12-04T20:49:18.694Z,7.53
2017-12-04T20:51:46.321Z,6.95
2017-12-04T20:54:14.001Z,7.68
2017-12-04T20:56:42.344Z,6.22
2017-12-04T20:59:09.971Z,7.60
2017-12-04T21:01:37.543Z,6.93
2017-12-04T21:04:05.244Z,5.57
2017-12-04T21:06:32.817Z,5.47
2017-12-04T21:09:13.181Z,6.18
2017-12-04T21:11:49.168Z,7.32
2017-12-04T21:14:28.764Z,7.28
2017-12-04T21:17:09.162Z,7.05
2017-12-04T21:19:36.794Z,7.55
2017-12-04T21:22:04.380Z,3.85
2017-12-04T21:24:31.959Z,6.35
2017-12-04T21:26:59.577Z,6.85
2017-12-04T21:29:27.960Z,7.47
2017-12-04T21:31:55.580Z,7.47
2017-12-04T21:34:23.265Z,7.80
2017-12-04T21:36:51.626Z,6.85
2017-12-04T21:39:19.249Z,8.02
2017-12-04T21:41:46.947Z,8.05
2017-12-04T21:44:15.291Z,6.90
2017-12-04T21:46:42.884Z,8.02
2017-12-04T21:49:10.500Z,6.50
2017-12-04T21:51:38.090Z,7.53
2017-12-04T21:54:05.682Z,6.15
2017-12-04T21:56:34.051Z,8.10
2017-12-04T21:59:02.465Z,7.10
2017-12-04T22:01:30.155Z,8.90
2017-12-04T22:03:57.759Z,7.60
2017-12-04T22:06:25.336Z,7.32
2017-12-04T22:08:52.928Z,7.10
2017-12-04T22:11:20.520Z,8.50
2017-12-04T22:13:49.071Z,7.97
2017-12-04T22:16:16.634Z,7.62
2017-12-04T22:18:44.213Z,6.22
2017-12-04T22:21:11.804Z,6.65
2017-12-04T22:23:39.581Z,6.40
2017-12-04T22:26:07.195Z,7.35
2017-12-04T22:28:35.700Z,7.05
2017-12-04T22:31:03.393Z,7.20
2017-12-04T22:33:30.989Z,7.12
2017-12-04T22:35:58.565Z,5.22
2017-12-04T22:38:26.944Z,8.23
2017-12-04T22:40:55.328Z,5.03
2017-12-04T22:43:23.684Z,2.70
2017-12-04T22:45:51.283Z,4.60
2017-12-04T22:48:18.955Z,6.65
2017-12-04T22:50:46.539Z,4.72
2017-12-04T22:53:14.116Z,6.05
2017-12-04T22:55:41.944Z,7.20
2017-12-04T22:58:09.611Z,7.82
2017-12-04T23:00:37.207Z,6.93
2017-12-04T23:03:05.550Z,6.40
2017-12-04T23:05:33.190Z,6.60
2017-12-04T23:08:00.783Z,3.58
2017-12-04T23:10:28.339Z,6.72
2017-12-04T23:12:55.944Z,3.20
2017-12-04T23:15:23.572Z,6.85
2017-12-04T23:17:51.187Z,3.22
2017-12-04T23:20:18.874Z,5.45
2017-12-04T23:22:46.456Z,5.20
2017-12-04T23:25:14.068Z,1.83
2017-12-04T23:27:41.637Z,5.03
2017-12-04T23:30:09.331Z,5.93
2017-12-04T23:32:36.927Z,5.50
2017-12-04T23:35:04.588Z,6.35
2017-12-04T23:37:32.185Z,4.35
2017-12-04T23:39:59.821Z,6.43
2017-12-04T23:42:27.699Z,6.62
2017-12-04T23:44:55.257Z,7.75
2017-12-04T23:47:22.820Z,5.40
2017-12-04T23:49:50.434Z,2.97
2017-12-04T23:52:18.776Z,6.75
2017-12-04T23:54:47.912Z,6.47
2017-12-04T23:57:16.279Z,6.85
2017-12-04T23:59:44.603Z,6.20
